Terminal Aerodrome Forecast
Issued by NWS

Home | Current Version | Previous Version | Graphics & Text | Print | Product List | Glossary On
Versions: 1 2 3 4 5 6 7 8 9 10 11 12 13 14 15 16 17 18 19 20
000
FTUS41 KCLE 021727
TAFFDY
TAF
KFDY 021727Z 0218/0318 23010G18KT P6SM FEW050
     FM030000 22012KT P6SM BKN200
     FM030400 21015KT P6SM VCTS BKN035CB OVC080
      TEMPO 0305/0308 2SM -TSRA BR BKN035CB OVC080
     FM030900 22010KT P6SM SCT020 BKN050
      TEMPO 0312/0316 BKN020
     FM031600 27010KT P6SM BKN035=

USA.gov is the U.S. government's official web portal to all federal, state and local government web resources and services.